sensor_id;sensor_type;location;lat;lon;timestamp;P1;durP1;ratioP1;P2;durP2;ratioP2
1206;SDS011;593;53.184;8.216;2024-01-16T00:00:46;1.70;;;0.50;;
1206;SDS011;593;53.184;8.216;2024-01-16T00:03:12;1.00;;;0.47;;
1206;SDS011;593;53.184;8.216;2024-01-16T00:05:37;1.17;;;0.40;;
1206;SDS011;593;53.184;8.216;2024-01-16T00:08:03;2.93;;;1.20;;
1206;SDS011;593;53.184;8.216;2024-01-16T00:10:28;1.87;;;0.40;;
1206;SDS011;593;53.184;8.216;2024-01-16T00:12:54;0.90;;;0.50;;
1206;SDS011;593;53.184;8.216;2024-01-16T00:15:20;0.93;;;0.30;;
1206;SDS011;593;53.184;8.216;2024-01-16T00:17:45;0.50;;;0.40;;
1206;SDS011;593;53.184;8.216;2024-01-16T00:20:11;0.50;;;0.40;;
1206;SDS011;593;53.184;8.216;2024-01-16T00:22:36;2.20;;;0.80;;
1206;SDS011;593;53.184;8.216;2024-01-16T00:25:01;2.97;;;0.90;;
1206;SDS011;593;53.184;8.216;2024-01-16T00:27:27;2.10;;;0.70;;
1206;SDS011;593;53.184;8.216;2024-01-16T00:29:52;0.50;;;0.40;;
1206;SDS011;593;53.184;8.216;2024-01-16T00:32:18;0.50;;;0.40;;
1206;SDS011;593;53.184;8.216;2024-01-16T00:34:43;0.80;;;0.50;;
1206;SDS011;593;53.184;8.216;2024-01-16T00:37:09;1.53;;;0.40;;
1206;SDS011;593;53.184;8.216;2024-01-16T00:39:34;1.90;;;0.47;;
1206;SDS011;593;53.184;8.216;2024-01-16T00:42:00;1.00;;;0.40;;
1206;SDS011;593;53.184;8.216;2024-01-16T00:44:27;0.50;;;0.40;;
1206;SDS011;593;53.184;8.216;2024-01-16T00:46:52;0.63;;;0.47;;
1206;SDS011;593;53.184;8.216;2024-01-16T00:49:20;0.50;;;0.40;;
1206;SDS011;593;53.184;8.216;2024-01-16T00:51:46;0.50;;;0.30;;
1206;SDS011;593;53.184;8.216;2024-01-16T00:54:11;0.47;;;0.30;;
1206;SDS011;593;53.184;8.216;2024-01-16T00:56:37;0.57;;;0.40;;
1206;SDS011;593;53.184;8.216;2024-01-16T00:59:02;0.60;;;0.33;;
1206;SDS011;593;53.184;8.216;2024-01-16T01:01:28;0.50;;;0.40;;
1206;SDS011;593;53.184;8.216;2024-01-16T01:03:56;0.40;;;0.30;;
1206;SDS011;593;53.184;8.216;2024-01-16T01:06:21;0.55;;;0.35;;
1206;SDS011;593;53.184;8.216;2024-01-16T01:08:47;1.03;;;0.30;;
1206;SDS011;593;53.184;8.216;2024-01-16T01:11:12;0.50;;;0.30;;
1206;SDS011;593;53.184;8.216;2024-01-16T01:13:38;0.40;;;0.30;;
1206;SDS011;593;53.184;8.216;2024-01-16T01:16:03;2.43;;;0.40;;
1206;SDS011;593;53.184;8.216;2024-01-16T01:18:29;1.13;;;0.30;;
1206;SDS011;593;53.184;8.216;2024-01-16T01:20:54;1.13;;;0.30;;
1206;SDS011;593;53.184;8.216;2024-01-16T01:23:21;0.50;;;0.30;;
1206;SDS011;593;53.184;8.216;2024-01-16T01:25:46;0.87;;;0.40;;
1206;SDS011;593;53.184;8.216;2024-01-16T01:28:11;0.80;;;0.40;;
1206;SDS011;593;53.184;8.216;2024-01-16T01:30:37;1.30;;;0.47;;
1206;SDS011;593;53.184;8.216;2024-01-16T01:33:02;0.80;;;0.40;;
1206;SDS011;593;53.184;8.216;2024-01-16T01:35:28;0.82;;;0.40;;
1206;SDS011;593;53.184;8.216;2024-01-16T01:37:54;2.83;;;0.40;;
1206;SDS011;593;53.184;8.216;2024-01-16T01:40:19;0.87;;;0.43;;
1206;SDS011;593;53.184;8.216;2024-01-16T01:42:45;1.90;;;0.45;;
1206;SDS011;593;53.184;8.216;2024-01-16T01:45:11;1.80;;;0.50;;
1206;SDS011;593;53.184;8.216;2024-01-16T01:47:39;1.73;;;0.60;;
1206;SDS011;593;53.184;8.216;2024-01-16T01:50:07;0.90;;;0.50;;
1206;SDS011;593;53.184;8.216;2024-01-16T01:52:33;2.25;;;0.40;;
1206;SDS011;593;53.184;8.216;2024-01-16T01:54:59;2.53;;;0.80;;
1206;SDS011;593;53.184;8.216;2024-01-16T01:57:26;0.93;;;0.38;;
1206;SDS011;593;53.184;8.216;2024-01-16T01:59:52;3.60;;;0.50;;
1206;SDS011;593;53.184;8.216;2024-01-16T02:02:18;1.83;;;0.40;;
1206;SDS011;593;53.184;8.216;2024-01-16T02:04:45;0.60;;;0.50;;
1206;SDS011;593;53.184;8.216;2024-01-16T02:07:12;2.45;;;0.43;;
1206;SDS011;593;53.184;8.216;2024-01-16T02:09:37;3.40;;;0.50;;
1206;SDS011;593;53.184;8.216;2024-01-16T02:12:04;0.57;;;0.50;;
1206;SDS011;593;53.184;8.216;2024-01-16T02:14:30;1.63;;;0.60;;
1206;SDS011;593;53.184;8.216;2024-01-16T02:17:01;0.50;;;0.40;;
1206;SDS011;593;53.184;8.216;2024-01-16T02:19:26;1.33;;;0.50;;
1206;SDS011;593;53.184;8.216;2024-01-16T02:21:52;0.70;;;0.50;;
1206;SDS011;593;53.184;8.216;2024-01-16T02:24:26;0.50;;;0.40;;
1206;SDS011;593;53.184;8.216;2024-01-16T02:26:52;1.13;;;0.52;;
1206;SDS011;593;53.184;8.216;2024-01-16T02:29:18;1.25;;;0.50;;
1206;SDS011;593;53.184;8.216;2024-01-16T02:31:44;3.40;;;0.50;;
1206;SDS011;593;53.184;8.216;2024-01-16T02:34:10;0.70;;;0.43;;
1206;SDS011;593;53.184;8.216;2024-01-16T02:36:35;4.00;;;0.50;;
1206;SDS011;593;53.184;8.216;2024-01-16T02:39:01;4.37;;;0.50;;
1206;SDS011;593;53.184;8.216;2024-01-16T02:41:26;0.63;;;0.50;;
1206;SDS011;593;53.184;8.216;2024-01-16T02:43:51;2.10;;;0.50;;
1206;SDS011;593;53.184;8.216;2024-01-16T02:46:17;0.40;;;0.30;;
1206;SDS011;593;53.184;8.216;2024-01-16T02:48:42;0.57;;;0.50;;
1206;SDS011;593;53.184;8.216;2024-01-16T02:51:08;0.50;;;0.40;;
1206;SDS011;593;53.184;8.216;2024-01-16T02:53:33;1.93;;;0.80;;
1206;SDS011;593;53.184;8.216;2024-01-16T02:56:00;1.60;;;1.27;;
1206;SDS011;593;53.184;8.216;2024-01-16T02:58:29;2.17;;;0.70;;
1206;SDS011;593;53.184;8.216;2024-01-16T03:00:56;5.07;;;0.90;;
1206;SDS011;593;53.184;8.216;2024-01-16T03:03:22;1.20;;;0.60;;
1206;SDS011;593;53.184;8.216;2024-01-16T03:05:48;2.10;;;0.50;;
1206;SDS011;593;53.184;8.216;2024-01-16T03:08:13;3.00;;;0.80;;
1206;SDS011;593;53.184;8.216;2024-01-16T03:10:38;1.27;;;0.60;;
1206;SDS011;593;53.184;8.216;2024-01-16T03:13:04;1.17;;;0.70;;
1206;SDS011;593;53.184;8.216;2024-01-16T03:15:30;1.53;;;0.60;;
1206;SDS011;593;53.184;8.216;2024-01-16T03:17:58;1.63;;;0.60;;
1206;SDS011;593;53.184;8.216;2024-01-16T03:20:25;1.83;;;0.47;;
1206;SDS011;593;53.184;8.216;2024-01-16T03:22:50;1.13;;;0.50;;
1206;SDS011;593;53.184;8.216;2024-01-16T03:25:16;3.07;;;0.70;;
1206;SDS011;593;53.184;8.216;2024-01-16T03:27:42;1.33;;;0.60;;
1206;SDS011;593;53.184;8.216;2024-01-16T03:30:08;1.80;;;0.50;;
1206;SDS011;593;53.184;8.216;2024-01-16T03:32:35;0.60;;;0.60;;
1206;SDS011;593;53.184;8.216;2024-01-16T03:35:00;0.93;;;0.40;;
1206;SDS011;593;53.184;8.216;2024-01-16T03:37:26;2.50;;;1.33;;
1206;SDS011;593;53.184;8.216;2024-01-16T03:39:51;1.03;;;0.70;;
1206;SDS011;593;53.184;8.216;2024-01-16T03:42:17;0.60;;;0.40;;
1206;SDS011;593;53.184;8.216;2024-01-16T03:44:43;2.08;;;0.50;;
1206;SDS011;593;53.184;8.216;2024-01-16T03:47:08;6.33;;;1.17;;
1206;SDS011;593;53.184;8.216;2024-01-16T03:49:34;1.10;;;0.40;;
1206;SDS011;593;53.184;8.216;2024-01-16T03:51:59;2.30;;;0.63;;
1206;SDS011;593;53.184;8.216;2024-01-16T03:54:25;1.43;;;0.40;;
1206;SDS011;593;53.184;8.216;2024-01-16T03:56:51;1.43;;;0.43;;
1206;SDS011;593;53.184;8.216;2024-01-16T03:59:16;0.50;;;0.33;;
1206;SDS011;593;53.184;8.216;2024-01-16T04:01:42;3.33;;;0.40;;
1206;SDS011;593;53.184;8.216;2024-01-16T04:04:09;1.33;;;0.40;;
1206;SDS011;593;53.184;8.216;2024-01-16T04:06:35;1.30;;;0.45;;
1206;SDS011;593;53.184;8.216;2024-01-16T04:09:01;2.30;;;0.60;;
1206;SDS011;593;53.184;8.216;2024-01-16T04:11:26;0.70;;;0.40;;
1206;SDS011;593;53.184;8.216;2024-01-16T04:13:52;0.60;;;0.40;;
1206;SDS011;593;53.184;8.216;2024-01-16T04:16:17;1.23;;;0.70;;
1206;SDS011;593;53.184;8.216;2024-01-16T04:18:43;1.40;;;1.30;;
1206;SDS011;593;53.184;8.216;2024-01-16T04:21:08;3.03;;;0.50;;
1206;SDS011;593;53.184;8.216;2024-01-16T04:23:37;0.80;;;0.70;;
1206;SDS011;593;53.184;8.216;2024-01-16T04:26:03;1.65;;;0.50;;
1206;SDS011;593;53.184;8.216;2024-01-16T04:28:28;2.03;;;0.60;;
1206;SDS011;593;53.184;8.216;2024-01-16T04:30:54;5.30;;;0.57;;
1206;SDS011;593;53.184;8.216;2024-01-16T04:33:19;3.17;;;0.30;;
1206;SDS011;593;53.184;8.216;2024-01-16T04:35:45;1.60;;;0.40;;
1206;SDS011;593;53.184;8.216;2024-01-16T04:38:10;0.90;;;0.30;;
1206;SDS011;593;53.184;8.216;2024-01-16T04:40:39;3.72;;;0.60;;
1206;SDS011;593;53.184;8.216;2024-01-16T04:43:05;1.15;;;0.40;;
1206;SDS011;593;53.184;8.216;2024-01-16T04:45:30;0.80;;;0.40;;
1206;SDS011;593;53.184;8.216;2024-01-16T04:47:56;5.60;;;0.77;;
1206;SDS011;593;53.184;8.216;2024-01-16T04:50:21;3.87;;;0.70;;
1206;SDS011;593;53.184;8.216;2024-01-16T04:52:47;2.15;;;0.82;;
1206;SDS011;593;53.184;8.216;2024-01-16T04:55:13;2.53;;;0.60;;
1206;SDS011;593;53.184;8.216;2024-01-16T04:57:38;3.47;;;0.50;;
1206;SDS011;593;53.184;8.216;2024-01-16T05:00:05;1.27;;;0.50;;
1206;SDS011;593;53.184;8.216;2024-01-16T05:02:32;2.47;;;0.70;;
1206;SDS011;593;53.184;8.216;2024-01-16T05:04:58;5.97;;;0.88;;
1206;SDS011;593;53.184;8.216;2024-01-16T05:07:24;1.80;;;0.40;;
1206;SDS011;593;53.184;8.216;2024-01-16T05:09:49;1.23;;;0.40;;
1206;SDS011;593;53.184;8.216;2024-01-16T05:12:15;1.90;;;0.50;;
1206;SDS011;593;53.184;8.216;2024-01-16T05:14:40;0.70;;;0.40;;
1206;SDS011;593;53.184;8.216;2024-01-16T05:17:06;1.57;;;0.50;;
1206;SDS011;593;53.184;8.216;2024-01-16T05:19:31;3.80;;;0.70;;
1206;SDS011;593;53.184;8.216;2024-01-16T05:21:57;3.53;;;0.80;;
1206;SDS011;593;53.184;8.216;2024-01-16T05:24:22;2.50;;;0.60;;
1206;SDS011;593;53.184;8.216;2024-01-16T05:26:48;4.50;;;0.60;;
1206;SDS011;593;53.184;8.216;2024-01-16T05:29:13;1.33;;;0.73;;
1206;SDS011;593;53.184;8.216;2024-01-16T05:31:39;3.13;;;0.60;;
1206;SDS011;593;53.184;8.216;2024-01-16T05:34:08;4.93;;;0.75;;
1206;SDS011;593;53.184;8.216;2024-01-16T05:36:34;2.05;;;0.45;;
1206;SDS011;593;53.184;8.216;2024-01-16T05:39:00;2.33;;;1.00;;
1206;SDS011;593;53.184;8.216;2024-01-16T05:41:26;3.13;;;0.70;;
1206;SDS011;593;53.184;8.216;2024-01-16T05:43:51;1.27;;;1.05;;
1206;SDS011;593;53.184;8.216;2024-01-16T05:46:17;4.43;;;0.67;;
1206;SDS011;593;53.184;8.216;2024-01-16T05:48:43;2.17;;;0.60;;
1206;SDS011;593;53.184;8.216;2024-01-16T05:51:09;9.97;;;1.00;;
1206;SDS011;593;53.184;8.216;2024-01-16T05:53:34;3.43;;;0.83;;
1206;SDS011;593;53.184;8.216;2024-01-16T05:55:59;1.47;;;0.60;;
1206;SDS011;593;53.184;8.216;2024-01-16T05:58:25;6.43;;;0.60;;
1206;SDS011;593;53.184;8.216;2024-01-16T06:00:50;2.17;;;0.70;;
1206;SDS011;593;53.184;8.216;2024-01-16T06:03:16;0.67;;;0.67;;
1206;SDS011;593;53.184;8.216;2024-01-16T06:05:41;4.33;;;1.13;;
1206;SDS011;593;53.184;8.216;2024-01-16T06:08:07;0.93;;;0.57;;
1206;SDS011;593;53.184;8.216;2024-01-16T06:10:32;0.70;;;0.50;;
1206;SDS011;593;53.184;8.216;2024-01-16T06:12:58;1.53;;;0.50;;
1206;SDS011;593;53.184;8.216;2024-01-16T06:15:23;0.77;;;0.50;;
1206;SDS011;593;53.184;8.216;2024-01-16T06:17:48;3.60;;;0.57;;
1206;SDS011;593;53.184;8.216;2024-01-16T06:20:14;5.87;;;0.87;;
1206;SDS011;593;53.184;8.216;2024-01-16T06:22:39;2.17;;;0.60;;
1206;SDS011;593;53.184;8.216;2024-01-16T06:25:05;0.73;;;0.67;;
1206;SDS011;593;53.184;8.216;2024-01-16T06:27:31;3.05;;;0.68;;
1206;SDS011;593;53.184;8.216;2024-01-16T06:29:56;1.73;;;0.50;;
1206;SDS011;593;53.184;8.216;2024-01-16T06:32:22;1.20;;;0.40;;
1206;SDS011;593;53.184;8.216;2024-01-16T06:34:47;8.47;;;0.70;;
1206;SDS011;593;53.184;8.216;2024-01-16T06:37:12;0.50;;;0.50;;
1206;SDS011;593;53.184;8.216;2024-01-16T06:39:38;2.30;;;0.40;;
1206;SDS011;593;53.184;8.216;2024-01-16T06:42:04;0.98;;;0.75;;
1206;SDS011;593;53.184;8.216;2024-01-16T06:44:30;2.00;;;0.53;;
1206;SDS011;593;53.184;8.216;2024-01-16T06:46:55;1.23;;;0.60;;
1206;SDS011;593;53.184;8.216;2024-01-16T06:49:20;1.90;;;0.60;;
1206;SDS011;593;53.184;8.216;2024-01-16T06:51:46;4.80;;;1.00;;
1206;SDS011;593;53.184;8.216;2024-01-16T06:54:11;4.60;;;0.60;;
1206;SDS011;593;53.184;8.216;2024-01-16T06:56:37;0.90;;;0.60;;
1206;SDS011;593;53.184;8.216;2024-01-16T06:59:02;4.70;;;0.70;;
1206;SDS011;593;53.184;8.216;2024-01-16T07:01:28;1.03;;;0.60;;
1206;SDS011;593;53.184;8.216;2024-01-16T07:03:53;1.17;;;0.40;;
1206;SDS011;593;53.184;8.216;2024-01-16T07:06:19;0.87;;;0.50;;
1206;SDS011;593;53.184;8.216;2024-01-16T07:08:44;1.40;;;0.60;;
1206;SDS011;593;53.184;8.216;2024-01-16T07:11:11;2.30;;;0.80;;
1206;SDS011;593;53.184;8.216;2024-01-16T07:13:41;0.60;;;0.40;;
1206;SDS011;593;53.184;8.216;2024-01-16T07:16:09;2.47;;;0.70;;
1206;SDS011;593;53.184;8.216;2024-01-16T07:18:36;3.00;;;0.60;;
1206;SDS011;593;53.184;8.216;2024-01-16T07:21:01;3.90;;;0.57;;
1206;SDS011;593;53.184;8.216;2024-01-16T07:23:28;3.05;;;0.52;;
1206;SDS011;593;53.184;8.216;2024-01-16T07:25:53;0.70;;;0.37;;
1206;SDS011;593;53.184;8.216;2024-01-16T07:28:19;0.83;;;0.50;;
1206;SDS011;593;53.184;8.216;2024-01-16T07:30:47;4.80;;;0.70;;
1206;SDS011;593;53.184;8.216;2024-01-16T07:33:12;2.30;;;0.60;;
1206;SDS011;593;53.184;8.216;2024-01-16T07:35:38;5.10;;;0.80;;
1206;SDS011;593;53.184;8.216;2024-01-16T07:38:06;1.42;;;0.60;;
1206;SDS011;593;53.184;8.216;2024-01-16T07:40:31;1.20;;;0.80;;
1206;SDS011;593;53.184;8.216;2024-01-16T07:42:57;4.30;;;0.83;;
1206;SDS011;593;53.184;8.216;2024-01-16T07:45:22;1.80;;;0.57;;
1206;SDS011;593;53.184;8.216;2024-01-16T07:47:48;1.35;;;0.60;;
1206;SDS011;593;53.184;8.216;2024-01-16T07:50:13;1.10;;;0.53;;
1206;SDS011;593;53.184;8.216;2024-01-16T07:52:39;1.25;;;0.50;;
1206;SDS011;593;53.184;8.216;2024-01-16T07:55:05;1.53;;;0.60;;
1206;SDS011;593;53.184;8.216;2024-01-16T07:57:30;1.70;;;0.60;;
1206;SDS011;593;53.184;8.216;2024-01-16T07:59:56;2.70;;;1.10;;
1206;SDS011;593;53.184;8.216;2024-01-16T08:02:22;3.70;;;0.57;;
1206;SDS011;593;53.184;8.216;2024-01-16T08:04:47;5.63;;;0.90;;
1206;SDS011;593;53.184;8.216;2024-01-16T08:07:13;2.97;;;0.70;;
1206;SDS011;593;53.184;8.216;2024-01-16T08:09:38;1.00;;;0.50;;
1206;SDS011;593;53.184;8.216;2024-01-16T08:12:03;2.87;;;1.10;;
1206;SDS011;593;53.184;8.216;2024-01-16T08:14:30;3.47;;;0.65;;
1206;SDS011;593;53.184;8.216;2024-01-16T08:16:56;0.50;;;0.47;;
1206;SDS011;593;53.184;8.216;2024-01-16T08:19:21;2.70;;;0.70;;
1206;SDS011;593;53.184;8.216;2024-01-16T08:21:47;0.50;;;0.40;;
1206;SDS011;593;53.184;8.216;2024-01-16T08:24:12;3.43;;;0.93;;
1206;SDS011;593;53.184;8.216;2024-01-16T08:26:38;1.23;;;0.67;;
1206;SDS011;593;53.184;8.216;2024-01-16T08:29:03;4.57;;;0.80;;
1206;SDS011;593;53.184;8.216;2024-01-16T08:31:30;0.70;;;0.70;;
1206;SDS011;593;53.184;8.216;2024-01-16T08:33:55;0.80;;;0.70;;
1206;SDS011;593;53.184;8.216;2024-01-16T08:36:22;4.40;;;0.60;;
1206;SDS011;593;53.184;8.216;2024-01-16T08:38:47;1.47;;;0.60;;
1206;SDS011;593;53.184;8.216;2024-01-16T08:41:13;2.03;;;0.90;;
1206;SDS011;593;53.184;8.216;2024-01-16T08:43:38;4.00;;;0.70;;
1206;SDS011;593;53.184;8.216;2024-01-16T08:46:04;3.23;;;0.90;;
1206;SDS011;593;53.184;8.216;2024-01-16T08:48:29;1.00;;;0.60;;
1206;SDS011;593;53.184;8.216;2024-01-16T08:50:54;3.10;;;1.00;;
1206;SDS011;593;53.184;8.216;2024-01-16T08:53:20;1.53;;;0.60;;
1206;SDS011;593;53.184;8.216;2024-01-16T08:55:48;2.13;;;0.88;;
1206;SDS011;593;53.184;8.216;2024-01-16T08:58:13;2.70;;;0.67;;
1206;SDS011;593;53.184;8.216;2024-01-16T09:00:39;2.70;;;0.70;;
1206;SDS011;593;53.184;8.216;2024-01-16T09:03:04;2.80;;;0.80;;
1206;SDS011;593;53.184;8.216;2024-01-16T09:05:30;5.30;;;1.23;;
1206;SDS011;593;53.184;8.216;2024-01-16T09:07:55;3.00;;;0.70;;
1206;SDS011;593;53.184;8.216;2024-01-16T09:10:21;4.00;;;0.90;;
1206;SDS011;593;53.184;8.216;2024-01-16T09:12:46;1.03;;;0.60;;
1206;SDS011;593;53.184;8.216;2024-01-16T09:15:13;0.85;;;0.70;;
1206;SDS011;593;53.184;8.216;2024-01-16T09:17:39;3.43;;;0.70;;
1206;SDS011;593;53.184;8.216;2024-01-16T09:20:05;0.90;;;0.70;;
1206;SDS011;593;53.184;8.216;2024-01-16T09:22:31;1.30;;;0.82;;
1206;SDS011;593;53.184;8.216;2024-01-16T09:24:57;3.33;;;1.00;;
1206;SDS011;593;53.184;8.216;2024-01-16T09:27:22;3.20;;;1.23;;
1206;SDS011;593;53.184;8.216;2024-01-16T09:29:48;1.50;;;0.97;;
1206;SDS011;593;53.184;8.216;2024-01-16T09:32:14;4.00;;;1.15;;
1206;SDS011;593;53.184;8.216;2024-01-16T09:34:39;1.60;;;1.10;;
1206;SDS011;593;53.184;8.216;2024-01-16T09:37:05;4.27;;;0.80;;
1206;SDS011;593;53.184;8.216;2024-01-16T09:39:31;1.73;;;1.53;;
1206;SDS011;593;53.184;8.216;2024-01-16T09:41:57;0.77;;;0.70;;
1206;SDS011;593;53.184;8.216;2024-01-16T09:44:26;3.00;;;1.40;;
1206;SDS011;593;53.184;8.216;2024-01-16T09:46:52;4.15;;;0.90;;
1206;SDS011;593;53.184;8.216;2024-01-16T09:49:19;3.40;;;1.20;;
1206;SDS011;593;53.184;8.216;2024-01-16T09:51:46;3.13;;;0.98;;
1206;SDS011;593;53.184;8.216;2024-01-16T09:54:11;2.80;;;0.93;;
1206;SDS011;593;53.184;8.216;2024-01-16T09:56:41;3.87;;;1.53;;
1206;SDS011;593;53.184;8.216;2024-01-16T09:59:12;1.20;;;1.10;;
1206;SDS011;593;53.184;8.216;2024-01-16T10:01:42;1.92;;;1.20;;
1206;SDS011;593;53.184;8.216;2024-01-16T10:04:08;3.97;;;1.17;;
1206;SDS011;593;53.184;8.216;2024-01-16T10:06:34;3.63;;;1.57;;
1206;SDS011;593;53.184;8.216;2024-01-16T10:09:01;2.58;;;1.25;;
1206;SDS011;593;53.184;8.216;2024-01-16T10:11:27;3.40;;;1.13;;
1206;SDS011;593;53.184;8.216;2024-01-16T10:13:54;3.30;;;1.58;;
1206;SDS011;593;53.184;8.216;2024-01-16T10:16:20;4.53;;;2.05;;
1206;SDS011;593;53.184;8.216;2024-01-16T10:18:46;4.90;;;1.45;;
1206;SDS011;593;53.184;8.216;2024-01-16T10:21:21;1.60;;;1.50;;
1206;SDS011;593;53.184;8.216;2024-01-16T10:23:47;3.20;;;1.50;;
1206;SDS011;593;53.184;8.216;2024-01-16T10:26:14;1.50;;;1.10;;
1206;SDS011;593;53.184;8.216;2024-01-16T10:28:40;10.47;;;1.47;;
1206;SDS011;593;53.184;8.216;2024-01-16T10:31:07;4.45;;;1.67;;
1206;SDS011;593;53.184;8.216;2024-01-16T10:33:33;2.25;;;1.30;;
1206;SDS011;593;53.184;8.216;2024-01-16T10:38:36;1.85;;;1.35;;
1206;SDS011;593;53.184;8.216;2024-01-16T10:41:09;2.60;;;1.33;;
1206;SDS011;593;53.184;8.216;2024-01-16T10:43:38;3.35;;;1.70;;
1206;SDS011;593;53.184;8.216;2024-01-16T10:46:11;2.83;;;1.38;;
1206;SDS011;593;53.184;8.216;2024-01-16T10:48:44;2.95;;;1.83;;
1206;SDS011;593;53.184;8.216;2024-01-16T10:51:11;4.45;;;2.17;;
1206;SDS011;593;53.184;8.216;2024-01-16T10:53:43;5.38;;;3.00;;
1206;SDS011;593;53.184;8.216;2024-01-16T10:56:13;2.30;;;1.80;;
1206;SDS011;593;53.184;8.216;2024-01-16T10:58:41;4.82;;;3.10;;
1206;SDS011;593;53.184;8.216;2024-01-16T11:01:10;4.50;;;1.83;;
1206;SDS011;593;53.184;8.216;2024-01-16T11:03:49;2.10;;;1.50;;
1206;SDS011;593;53.184;8.216;2024-01-16T11:06:18;2.15;;;1.55;;
1206;SDS011;593;53.184;8.216;2024-01-16T11:08:50;4.50;;;1.77;;
1206;SDS011;593;53.184;8.216;2024-01-16T11:11:16;2.45;;;1.58;;
1206;SDS011;593;53.184;8.216;2024-01-16T11:13:42;2.00;;;1.43;;
1206;SDS011;593;53.184;8.216;2024-01-16T11:16:12;2.67;;;1.70;;
1206;SDS011;593;53.184;8.216;2024-01-16T11:18:38;4.05;;;1.98;;
1206;SDS011;593;53.184;8.216;2024-01-16T11:21:06;2.80;;;1.67;;
1206;SDS011;593;53.184;8.216;2024-01-16T11:23:34;3.70;;;1.95;;
1206;SDS011;593;53.184;8.216;2024-01-16T11:26:05;2.45;;;1.58;;
1206;SDS011;593;53.184;8.216;2024-01-16T11:28:56;2.08;;;1.60;;
1206;SDS011;593;53.184;8.216;2024-01-16T11:31:30;2.40;;;1.77;;
1206;SDS011;593;53.184;8.216;2024-01-16T11:33:56;3.80;;;2.00;;
1206;SDS011;593;53.184;8.216;2024-01-16T11:39:21;4.55;;;2.22;;
1206;SDS011;593;53.184;8.216;2024-01-16T11:41:57;4.60;;;1.60;;
1206;SDS011;593;53.184;8.216;2024-01-16T11:44:36;4.75;;;2.78;;
1206;SDS011;593;53.184;8.216;2024-01-16T11:47:05;2.35;;;1.65;;
1206;SDS011;593;53.184;8.216;2024-01-16T11:49:32;6.55;;;2.70;;
1206;SDS011;593;53.184;8.216;2024-01-16T11:51:58;2.50;;;1.87;;
1206;SDS011;593;53.184;8.216;2024-01-16T11:54:24;2.08;;;1.65;;
1206;SDS011;593;53.184;8.216;2024-01-16T12:02:37;4.47;;;2.15;;
1206;SDS011;593;53.184;8.216;2024-01-16T12:05:11;4.18;;;2.13;;
1206;SDS011;593;53.184;8.216;2024-01-16T12:07:47;2.67;;;2.40;;
1206;SDS011;593;53.184;8.216;2024-01-16T12:10:17;5.85;;;2.33;;
1206;SDS011;593;53.184;8.216;2024-01-16T12:12:44;3.22;;;2.05;;
1206;SDS011;593;53.184;8.216;2024-01-16T12:15:17;1.40;;;1.30;;
1206;SDS011;593;53.184;8.216;2024-01-16T12:17:57;2.38;;;2.20;;
1206;SDS011;593;53.184;8.216;2024-01-16T12:20:33;2.88;;;2.65;;
1206;SDS011;593;53.184;8.216;2024-01-16T12:23:00;2.22;;;2.00;;
1206;SDS011;593;53.184;8.216;2024-01-16T12:25:27;3.50;;;2.47;;
1206;SDS011;593;53.184;8.216;2024-01-16T12:28:00;2.17;;;1.88;;
1206;SDS011;593;53.184;8.216;2024-01-16T12:30:27;9.43;;;2.33;;
1206;SDS011;593;53.184;8.216;2024-01-16T12:33:07;4.55;;;2.25;;
1206;SDS011;593;53.184;8.216;2024-01-16T12:35:38;4.10;;;2.30;;
1206;SDS011;593;53.184;8.216;2024-01-16T12:38:06;4.40;;;1.88;;
1206;SDS011;593;53.184;8.216;2024-01-16T12:40:36;3.95;;;2.38;;
1206;SDS011;593;53.184;8.216;2024-01-16T12:43:03;3.40;;;1.95;;
1206;SDS011;593;53.184;8.216;2024-01-16T12:45:29;3.67;;;3.33;;
1206;SDS011;593;53.184;8.216;2024-01-16T12:47:56;4.88;;;2.83;;
1206;SDS011;593;53.184;8.216;2024-01-16T12:50:23;8.32;;;3.15;;
1206;SDS011;593;53.184;8.216;2024-01-16T12:53:07;3.92;;;3.13;;
1206;SDS011;593;53.184;8.216;2024-01-16T12:55:37;2.90;;;2.40;;
1206;SDS011;593;53.184;8.216;2024-01-16T13:00:48;2.90;;;2.70;;
1206;SDS011;593;53.184;8.216;2024-01-16T13:03:22;5.05;;;3.28;;
1206;SDS011;593;53.184;8.216;2024-01-16T13:05:59;10.07;;;3.58;;
1206;SDS011;593;53.184;8.216;2024-01-16T13:08:25;3.70;;;2.92;;
1206;SDS011;593;53.184;8.216;2024-01-16T13:13:33;4.55;;;3.28;;
1206;SDS011;593;53.184;8.216;2024-01-16T13:15:59;4.40;;;2.67;;
1206;SDS011;593;53.184;8.216;2024-01-16T13:18:26;4.10;;;3.03;;
1206;SDS011;593;53.184;8.216;2024-01-16T13:20:53;4.38;;;2.90;;
1206;SDS011;593;53.184;8.216;2024-01-16T13:23:21;3.22;;;3.03;;
1206;SDS011;593;53.184;8.216;2024-01-16T13:25:47;3.13;;;2.63;;
1206;SDS011;593;53.184;8.216;2024-01-16T13:28:15;2.53;;;2.33;;
1206;SDS011;593;53.184;8.216;2024-01-16T13:30:42;4.90;;;3.03;;
1206;SDS011;593;53.184;8.216;2024-01-16T13:33:08;4.47;;;3.70;;
1206;SDS011;593;53.184;8.216;2024-01-16T13:35:34;6.10;;;2.93;;
1206;SDS011;593;53.184;8.216;2024-01-16T13:38:04;5.40;;;2.67;;
1206;SDS011;593;53.184;8.216;2024-01-16T13:40:30;3.53;;;2.92;;
1206;SDS011;593;53.184;8.216;2024-01-16T13:42:56;4.30;;;3.07;;
1206;SDS011;593;53.184;8.216;2024-01-16T13:45:23;5.38;;;2.88;;
1206;SDS011;593;53.184;8.216;2024-01-16T13:47:48;5.33;;;2.73;;
1206;SDS011;593;53.184;8.216;2024-01-16T13:50:14;4.40;;;2.35;;
1206;SDS011;593;53.184;8.216;2024-01-16T13:52:40;3.03;;;2.78;;
1206;SDS011;593;53.184;8.216;2024-01-16T13:55:06;4.60;;;3.10;;
1206;SDS011;593;53.184;8.216;2024-01-16T13:57:32;4.00;;;2.38;;
1206;SDS011;593;53.184;8.216;2024-01-16T14:00:00;2.45;;;2.25;;
1206;SDS011;593;53.184;8.216;2024-01-16T14:02:25;3.53;;;2.03;;
1206;SDS011;593;53.184;8.216;2024-01-16T14:04:51;2.77;;;2.50;;
1206;SDS011;593;53.184;8.216;2024-01-16T14:07:16;3.40;;;2.07;;
1206;SDS011;593;53.184;8.216;2024-01-16T14:09:42;2.70;;;2.50;;
1206;SDS011;593;53.184;8.216;2024-01-16T14:12:08;2.30;;;2.00;;
1206;SDS011;593;53.184;8.216;2024-01-16T14:14:34;2.83;;;1.90;;
1206;SDS011;593;53.184;8.216;2024-01-16T14:16:59;3.77;;;2.00;;
1206;SDS011;593;53.184;8.216;2024-01-16T14:19:25;2.40;;;2.20;;
1206;SDS011;593;53.184;8.216;2024-01-16T14:21:52;3.58;;;1.50;;
1206;SDS011;593;53.184;8.216;2024-01-16T14:24:18;1.90;;;1.80;;
1206;SDS011;593;53.184;8.216;2024-01-16T14:26:43;4.73;;;2.40;;
1206;SDS011;593;53.184;8.216;2024-01-16T14:29:10;1.63;;;1.52;;
1206;SDS011;593;53.184;8.216;2024-01-16T14:31:36;1.47;;;1.40;;
1206;SDS011;593;53.184;8.216;2024-01-16T14:34:01;3.13;;;2.10;;
1206;SDS011;593;53.184;8.216;2024-01-16T14:36:26;6.10;;;2.20;;
1206;SDS011;593;53.184;8.216;2024-01-16T14:38:52;2.30;;;1.97;;
1206;SDS011;593;53.184;8.216;2024-01-16T14:41:17;5.33;;;2.77;;
1206;SDS011;593;53.184;8.216;2024-01-16T14:43:43;3.77;;;2.30;;
1206;SDS011;593;53.184;8.216;2024-01-16T14:46:08;2.23;;;2.13;;
1206;SDS011;593;53.184;8.216;2024-01-16T14:48:37;7.57;;;3.00;;
1206;SDS011;593;53.184;8.216;2024-01-16T14:51:08;5.72;;;3.60;;
1206;SDS011;593;53.184;8.216;2024-01-16T14:53:35;5.25;;;4.15;;
1206;SDS011;593;53.184;8.216;2024-01-16T14:56:01;4.33;;;3.10;;
1206;SDS011;593;53.184;8.216;2024-01-16T14:58:27;5.43;;;3.45;;
1206;SDS011;593;53.184;8.216;2024-01-16T15:00:53;3.53;;;3.20;;
1206;SDS011;593;53.184;8.216;2024-01-16T15:03:20;4.63;;;2.75;;
1206;SDS011;593;53.184;8.216;2024-01-16T15:05:46;3.50;;;2.90;;
1206;SDS011;593;53.184;8.216;2024-01-16T15:08:12;4.60;;;3.13;;
1206;SDS011;593;53.184;8.216;2024-01-16T15:10:38;3.23;;;2.80;;
1206;SDS011;593;53.184;8.216;2024-01-16T15:13:04;5.33;;;3.70;;
1206;SDS011;593;53.184;8.216;2024-01-16T15:15:30;5.47;;;4.50;;
1206;SDS011;593;53.184;8.216;2024-01-16T15:17:55;3.97;;;3.37;;
1206;SDS011;593;53.184;8.216;2024-01-16T15:20:21;3.70;;;3.40;;
1206;SDS011;593;53.184;8.216;2024-01-16T15:22:46;4.10;;;3.30;;
1206;SDS011;593;53.184;8.216;2024-01-16T15:25:15;6.10;;;3.88;;
1206;SDS011;593;53.184;8.216;2024-01-16T15:27:45;7.30;;;4.10;;
1206;SDS011;593;53.184;8.216;2024-01-16T15:30:11;5.13;;;4.60;;
1206;SDS011;593;53.184;8.216;2024-01-16T15:32:38;6.40;;;4.93;;
1206;SDS011;593;53.184;8.216;2024-01-16T15:35:04;4.47;;;4.07;;
1206;SDS011;593;53.184;8.216;2024-01-16T15:37:32;5.57;;;4.97;;
1206;SDS011;593;53.184;8.216;2024-01-16T15:40:00;5.13;;;4.63;;
1206;SDS011;593;53.184;8.216;2024-01-16T15:42:26;10.70;;;5.60;;